sensor_id;sensor_type;location;lat;lon;timestamp;P1;durP1;ratioP1;P2;durP2;ratioP2
9940;SDS011;5009;50.656;7.188;2023-02-26T05:01:47;6.50;;;3.53;;
9940;SDS011;5009;50.656;7.188;2023-02-26T05:04:13;7.43;;;3.77;;
9940;SDS011;5009;50.656;7.188;2023-02-26T05:06:38;5.70;;;3.60;;
9940;SDS011;5009;50.656;7.188;2023-02-26T05:09:04;4.43;;;4.00;;
9940;SDS011;5009;50.656;7.188;2023-02-26T05:11:30;7.43;;;3.50;;
9940;SDS011;5009;50.656;7.188;2023-02-26T05:13:57;6.70;;;3.87;;
9940;SDS011;5009;50.656;7.188;2023-02-26T05:16:22;6.93;;;3.93;;
9940;SDS011;5009;50.656;7.188;2023-02-26T05:18:48;8.17;;;3.77;;
9940;SDS011;5009;50.656;7.188;2023-02-26T05:21:13;5.67;;;4.07;;
9940;SDS011;5009;50.656;7.188;2023-02-26T05:23:39;5.47;;;3.80;;
9940;SDS011;5009;50.656;7.188;2023-02-26T05:26:04;7.80;;;3.97;;
9940;SDS011;5009;50.656;7.188;2023-02-26T05:28:30;6.10;;;3.73;;
9940;SDS011;5009;50.656;7.188;2023-02-26T05:30:57;6.50;;;3.87;;
9940;SDS011;5009;50.656;7.188;2023-02-26T05:33:23;5.17;;;3.70;;
9940;SDS011;5009;50.656;7.188;2023-02-26T05:35:49;6.60;;;3.70;;
9940;SDS011;5009;50.656;7.188;2023-02-26T05:38:16;5.83;;;3.87;;
9940;SDS011;5009;50.656;7.188;2023-02-26T05:40:41;7.53;;;3.97;;
9940;SDS011;5009;50.656;7.188;2023-02-26T05:43:07;6.57;;;4.00;;
9940;SDS011;5009;50.656;7.188;2023-02-26T05:45:33;5.10;;;3.90;;
9940;SDS011;5009;50.656;7.188;2023-02-26T05:47:58;5.83;;;4.00;;
9940;SDS011;5009;50.656;7.188;2023-02-26T05:50:24;6.07;;;3.43;;
9940;SDS011;5009;50.656;7.188;2023-02-26T05:52:52;6.20;;;4.00;;
9940;SDS011;5009;50.656;7.188;2023-02-26T05:55:17;6.93;;;4.20;;
9940;SDS011;5009;50.656;7.188;2023-02-26T05:57:43;6.30;;;3.67;;
9940;SDS011;5009;50.656;7.188;2023-02-26T06:00:09;6.87;;;4.07;;
9940;SDS011;5009;50.656;7.188;2023-02-26T06:02:36;6.13;;;3.83;;
9940;SDS011;5009;50.656;7.188;2023-02-26T06:05:02;6.40;;;3.37;;
9940;SDS011;5009;50.656;7.188;2023-02-26T06:07:28;4.47;;;4.00;;
9940;SDS011;5009;50.656;7.188;2023-02-26T06:09:54;4.27;;;3.63;;
9940;SDS011;5009;50.656;7.188;2023-02-26T06:12:19;5.87;;;3.87;;
9940;SDS011;5009;50.656;7.188;2023-02-26T06:14:45;5.77;;;4.03;;
9940;SDS011;5009;50.656;7.188;2023-02-26T06:17:10;6.30;;;3.70;;
9940;SDS011;5009;50.656;7.188;2023-02-26T06:19:36;5.87;;;3.20;;
9940;SDS011;5009;50.656;7.188;2023-02-26T06:22:40;7.67;;;3.63;;
9940;SDS011;5009;50.656;7.188;2023-02-26T06:25:06;4.63;;;3.00;;
9940;SDS011;5009;50.656;7.188;2023-02-26T06:27:31;3.97;;;3.37;;
9940;SDS011;5009;50.656;7.188;2023-02-26T06:29:57;3.53;;;3.23;;
9940;SDS011;5009;50.656;7.188;2023-02-26T06:32:42;6.27;;;3.40;;
9940;SDS011;5009;50.656;7.188;2023-02-26T06:35:08;3.33;;;3.03;;
9940;SDS011;5009;50.656;7.188;2023-02-26T06:37:35;4.77;;;3.17;;
9940;SDS011;5009;50.656;7.188;2023-02-26T06:40:00;4.03;;;3.40;;
9940;SDS011;5009;50.656;7.188;2023-02-26T06:42:27;6.30;;;3.20;;
9940;SDS011;5009;50.656;7.188;2023-02-26T06:44:53;5.30;;;3.70;;
9940;SDS011;5009;50.656;7.188;2023-02-26T06:47:20;4.03;;;3.30;;
9940;SDS011;5009;50.656;7.188;2023-02-26T06:49:46;3.80;;;3.23;;
9940;SDS011;5009;50.656;7.188;2023-02-26T06:52:13;4.30;;;3.17;;
9940;SDS011;5009;50.656;7.188;2023-02-26T06:54:38;5.67;;;3.37;;
9940;SDS011;5009;50.656;7.188;2023-02-26T06:57:04;3.83;;;3.13;;
9940;SDS011;5009;50.656;7.188;2023-02-26T06:59:30;3.50;;;3.20;;
9940;SDS011;5009;50.656;7.188;2023-02-26T07:01:55;4.60;;;3.67;;
9940;SDS011;5009;50.656;7.188;2023-02-26T07:04:21;5.60;;;3.43;;
9940;SDS011;5009;50.656;7.188;2023-02-26T07:06:47;4.90;;;3.37;;
9940;SDS011;5009;50.656;7.188;2023-02-26T07:09:12;4.73;;;3.30;;
9940;SDS011;5009;50.656;7.188;2023-02-26T07:11:38;5.97;;;3.40;;
9940;SDS011;5009;50.656;7.188;2023-02-26T07:14:04;4.80;;;3.80;;
9940;SDS011;5009;50.656;7.188;2023-02-26T07:16:29;8.30;;;3.77;;
9940;SDS011;5009;50.656;7.188;2023-02-26T07:18:55;5.23;;;3.40;;
9940;SDS011;5009;50.656;7.188;2023-02-26T07:21:20;3.77;;;3.20;;
9940;SDS011;5009;50.656;7.188;2023-02-26T07:23:46;4.33;;;3.40;;
9940;SDS011;5009;50.656;7.188;2023-02-26T07:26:12;4.07;;;3.00;;
9940;SDS011;5009;50.656;7.188;2023-02-26T07:28:37;5.37;;;3.10;;
9940;SDS011;5009;50.656;7.188;2023-02-26T07:31:03;3.37;;;3.03;;
9940;SDS011;5009;50.656;7.188;2023-02-26T07:33:28;4.70;;;3.10;;
9940;SDS011;5009;50.656;7.188;2023-02-26T07:35:55;3.90;;;2.70;;
9940;SDS011;5009;50.656;7.188;2023-02-26T07:38:21;4.80;;;2.97;;
9940;SDS011;5009;50.656;7.188;2023-02-26T07:40:47;3.77;;;3.00;;
9940;SDS011;5009;50.656;7.188;2023-02-26T07:43:13;4.37;;;2.60;;
9940;SDS011;5009;50.656;7.188;2023-02-26T07:45:38;4.33;;;2.90;;
9940;SDS011;5009;50.656;7.188;2023-02-26T07:48:04;3.77;;;2.70;;
9940;SDS011;5009;50.656;7.188;2023-02-26T07:50:30;2.60;;;2.23;;
9940;SDS011;5009;50.656;7.188;2023-02-26T07:52:57;4.67;;;2.50;;
9940;SDS011;5009;50.656;7.188;2023-02-26T07:55:23;2.43;;;2.23;;
9940;SDS011;5009;50.656;7.188;2023-02-26T07:57:48;2.97;;;2.40;;
9940;SDS011;5009;50.656;7.188;2023-02-26T08:00:14;2.73;;;2.40;;
9940;SDS011;5009;50.656;7.188;2023-02-26T08:02:40;4.80;;;2.70;;
9940;SDS011;5009;50.656;7.188;2023-02-26T08:05:06;2.80;;;2.60;;
9940;SDS011;5009;50.656;7.188;2023-02-26T08:07:31;4.68;;;3.20;;
9940;SDS011;5009;50.656;7.188;2023-02-26T08:09:57;4.25;;;2.65;;
9940;SDS011;5009;50.656;7.188;2023-02-26T08:12:23;3.57;;;3.03;;
9940;SDS011;5009;50.656;7.188;2023-02-26T08:14:48;3.25;;;2.95;;
9940;SDS011;5009;50.656;7.188;2023-02-26T08:17:14;4.93;;;3.10;;
9940;SDS011;5009;50.656;7.188;2023-02-26T08:19:40;3.90;;;3.07;;
9940;SDS011;5009;50.656;7.188;2023-02-26T08:22:05;5.50;;;2.93;;
9940;SDS011;5009;50.656;7.188;2023-02-26T08:24:31;4.17;;;2.80;;
9940;SDS011;5009;50.656;7.188;2023-02-26T08:26:56;2.93;;;2.60;;
9940;SDS011;5009;50.656;7.188;2023-02-26T08:29:22;3.63;;;2.80;;
9940;SDS011;5009;50.656;7.188;2023-02-26T08:31:48;5.70;;;3.10;;
9940;SDS011;5009;50.656;7.188;2023-02-26T08:34:13;3.43;;;2.70;;
9940;SDS011;5009;50.656;7.188;2023-02-26T08:36:39;4.33;;;2.70;;
9940;SDS011;5009;50.656;7.188;2023-02-26T08:39:04;5.93;;;3.17;;
9940;SDS011;5009;50.656;7.188;2023-02-26T08:41:31;3.20;;;2.90;;
9940;SDS011;5009;50.656;7.188;2023-02-26T08:44:00;6.73;;;3.00;;
9940;SDS011;5009;50.656;7.188;2023-02-26T08:46:25;3.67;;;3.00;;
9940;SDS011;5009;50.656;7.188;2023-02-26T08:48:51;3.10;;;2.80;;
9940;SDS011;5009;50.656;7.188;2023-02-26T08:51:17;3.77;;;3.10;;
9940;SDS011;5009;50.656;7.188;2023-02-26T08:53:43;3.53;;;3.20;;
9940;SDS011;5009;50.656;7.188;2023-02-26T08:56:11;4.57;;;3.10;;
9940;SDS011;5009;50.656;7.188;2023-02-26T08:58:37;4.90;;;2.93;;
9940;SDS011;5009;50.656;7.188;2023-02-26T09:01:02;5.07;;;3.43;;
9940;SDS011;5009;50.656;7.188;2023-02-26T09:03:28;7.83;;;3.57;;
9940;SDS011;5009;50.656;7.188;2023-02-26T09:05:54;3.23;;;2.80;;
9940;SDS011;5009;50.656;7.188;2023-02-26T09:08:19;4.20;;;2.73;;
9940;SDS011;5009;50.656;7.188;2023-02-26T09:10:45;4.00;;;2.90;;
9940;SDS011;5009;50.656;7.188;2023-02-26T09:13:11;2.73;;;2.47;;
9940;SDS011;5009;50.656;7.188;2023-02-26T09:15:37;3.20;;;2.77;;
9940;SDS011;5009;50.656;7.188;2023-02-26T09:18:02;4.43;;;2.93;;
9940;SDS011;5009;50.656;7.188;2023-02-26T09:20:28;6.73;;;3.13;;
9940;SDS011;5009;50.656;7.188;2023-02-26T09:22:54;5.43;;;3.10;;
9940;SDS011;5009;50.656;7.188;2023-02-26T09:25:19;2.77;;;2.47;;
9940;SDS011;5009;50.656;7.188;2023-02-26T09:27:45;3.50;;;2.73;;
9940;SDS011;5009;50.656;7.188;2023-02-26T09:30:11;4.43;;;2.80;;
9940;SDS011;5009;50.656;7.188;2023-02-26T09:32:36;2.73;;;2.37;;
9940;SDS011;5009;50.656;7.188;2023-02-26T09:35:03;2.93;;;2.23;;
9940;SDS011;5009;50.656;7.188;2023-02-26T09:37:29;2.30;;;2.10;;
9940;SDS011;5009;50.656;7.188;2023-02-26T09:39:55;2.83;;;2.63;;
9940;SDS011;5009;50.656;7.188;2023-02-26T09:45:18;4.07;;;2.23;;
9940;SDS011;5009;50.656;7.188;2023-02-26T09:47:54;2.43;;;2.20;;
9940;SDS011;5009;50.656;7.188;2023-02-26T09:50:22;2.50;;;2.30;;
9940;SDS011;5009;50.656;7.188;2023-02-26T09:55:30;2.33;;;2.20;;
9940;SDS011;5009;50.656;7.188;2023-02-26T09:58:03;4.20;;;2.27;;
9940;SDS011;5009;50.656;7.188;2023-02-26T10:06:28;2.10;;;1.90;;
9940;SDS011;5009;50.656;7.188;2023-02-26T10:09:12;3.33;;;1.93;;
9940;SDS011;5009;50.656;7.188;2023-02-26T10:12:15;2.90;;;1.97;;
9940;SDS011;5009;50.656;7.188;2023-02-26T10:36:27;2.17;;;1.30;;
9940;SDS011;5009;50.656;7.188;2023-02-26T10:39:03;4.67;;;1.23;;
9940;SDS011;5009;50.656;7.188;2023-02-26T10:41:47;2.17;;;1.60;;
9940;SDS011;5009;50.656;7.188;2023-02-26T10:44:17;1.07;;;1.03;;
9940;SDS011;5009;50.656;7.188;2023-02-26T10:47:11;3.50;;;1.90;;
9940;SDS011;5009;50.656;7.188;2023-02-26T10:50:07;2.00;;;1.63;;
9940;SDS011;5009;50.656;7.188;2023-02-26T10:52:39;2.17;;;1.33;;
9940;SDS011;5009;50.656;7.188;2023-02-26T10:55:20;2.50;;;1.47;;
9940;SDS011;5009;50.656;7.188;2023-02-26T11:00:41;2.10;;;1.63;;
9940;SDS011;5009;50.656;7.188;2023-02-26T11:03:20;2.00;;;1.37;;
9940;SDS011;5009;50.656;7.188;2023-02-26T11:05:46;1.87;;;1.50;;
9940;SDS011;5009;50.656;7.188;2023-02-26T11:14:04;1.40;;;1.30;;
9940;SDS011;5009;50.656;7.188;2023-02-26T11:16:29;1.80;;;1.13;;
9940;SDS011;5009;50.656;7.188;2023-02-26T11:18:57;1.93;;;1.70;;
9940;SDS011;5009;50.656;7.188;2023-02-26T11:21:28;1.30;;;1.20;;
9940;SDS011;5009;50.656;7.188;2023-02-26T11:24:04;1.47;;;1.07;;
9940;SDS011;5009;50.656;7.188;2023-02-26T11:26:35;3.30;;;1.47;;
9940;SDS011;5009;50.656;7.188;2023-02-26T11:29:03;1.33;;;1.20;;
9940;SDS011;5009;50.656;7.188;2023-02-26T11:31:29;1.30;;;1.20;;
9940;SDS011;5009;50.656;7.188;2023-02-26T11:34:03;1.77;;;1.20;;
9940;SDS011;5009;50.656;7.188;2023-02-26T11:36:32;2.07;;;1.27;;
9940;SDS011;5009;50.656;7.188;2023-02-26T11:39:04;2.07;;;1.00;;
9940;SDS011;5009;50.656;7.188;2023-02-26T11:41:46;0.90;;;0.90;;
9940;SDS011;5009;50.656;7.188;2023-02-26T11:44:15;1.40;;;0.83;;
9940;SDS011;5009;50.656;7.188;2023-02-26T11:46:45;1.03;;;1.03;;
9940;SDS011;5009;50.656;7.188;2023-02-26T11:49:17;2.13;;;1.13;;
9940;SDS011;5009;50.656;7.188;2023-02-26T11:51:47;1.47;;;1.10;;
9940;SDS011;5009;50.656;7.188;2023-02-26T11:54:26;1.53;;;1.17;;
9940;SDS011;5009;50.656;7.188;2023-02-26T11:57:00;2.20;;;1.43;;
9940;SDS011;5009;50.656;7.188;2023-02-26T11:59:29;2.20;;;1.50;;
9940;SDS011;5009;50.656;7.188;2023-02-26T12:01:57;1.17;;;1.07;;
9940;SDS011;5009;50.656;7.188;2023-02-26T12:04:27;0.90;;;0.90;;
9940;SDS011;5009;50.656;7.188;2023-02-26T12:06:53;2.57;;;1.10;;
9940;SDS011;5009;50.656;7.188;2023-02-26T12:09:20;1.33;;;1.20;;
9940;SDS011;5009;50.656;7.188;2023-02-26T12:14:43;0.97;;;0.97;;
9940;SDS011;5009;50.656;7.188;2023-02-26T12:20:13;1.27;;;1.10;;
9940;SDS011;5009;50.656;7.188;2023-02-26T12:23:01;2.50;;;1.20;;
9940;SDS011;5009;50.656;7.188;2023-02-26T12:36:13;2.43;;;1.13;;
9940;SDS011;5009;50.656;7.188;2023-02-26T12:42:01;2.70;;;1.23;;
9940;SDS011;5009;50.656;7.188;2023-02-26T12:52:38;1.57;;;1.30;;
9940;SDS011;5009;50.656;7.188;2023-02-26T12:55:32;1.47;;;1.37;;
9940;SDS011;5009;50.656;7.188;2023-02-26T12:58:44;2.17;;;1.77;;
9940;SDS011;5009;50.656;7.188;2023-02-26T13:01:01;2.00;;;1.10;;
9940;SDS011;5009;50.656;7.188;2023-02-26T13:21:56;3.73;;;1.40;;
9940;SDS011;5009;50.656;7.188;2023-02-26T13:24:36;2.47;;;1.13;;
9940;SDS011;5009;50.656;7.188;2023-02-26T13:27:16;1.33;;;1.10;;
9940;SDS011;5009;50.656;7.188;2023-02-26T13:29:47;1.50;;;1.23;;
9940;SDS011;5009;50.656;7.188;2023-02-26T13:32:33;0.80;;;0.80;;
9940;SDS011;5009;50.656;7.188;2023-02-26T13:35:04;1.67;;;1.57;;
9940;SDS011;5009;50.656;7.188;2023-02-26T13:37:41;3.00;;;1.13;;
9940;SDS011;5009;50.656;7.188;2023-02-26T13:45:29;1.27;;;1.00;;
9940;SDS011;5009;50.656;7.188;2023-02-26T13:50:49;1.33;;;1.13;;
9940;SDS011;5009;50.656;7.188;2023-02-26T14:11:59;1.70;;;1.60;;
9940;SDS011;5009;50.656;7.188;2023-02-26T14:19:32;4.63;;;1.13;;
9940;SDS011;5009;50.656;7.188;2023-02-26T14:27:37;1.93;;;1.70;;
9940;SDS011;5009;50.656;7.188;2023-02-26T14:35:09;2.27;;;1.40;;
9940;SDS011;5009;50.656;7.188;2023-02-26T14:37:38;2.37;;;1.30;;
9940;SDS011;5009;50.656;7.188;2023-02-26T14:40:11;1.73;;;1.40;;
9940;SDS011;5009;50.656;7.188;2023-02-26T14:42:51;2.07;;;1.40;;
9940;SDS011;5009;50.656;7.188;2023-02-26T14:48:16;4.17;;;1.40;;
9940;SDS011;5009;50.656;7.188;2023-02-26T14:56:10;2.13;;;1.53;;
9940;SDS011;5009;50.656;7.188;2023-02-26T14:58:58;1.77;;;1.67;;
9940;SDS011;5009;50.656;7.188;2023-02-26T15:01:42;2.00;;;1.30;;
9940;SDS011;5009;50.656;7.188;2023-02-26T15:07:09;1.27;;;1.03;;
9940;SDS011;5009;50.656;7.188;2023-02-26T15:25:58;1.83;;;1.40;;
9940;SDS011;5009;50.656;7.188;2023-02-26T15:28:25;1.60;;;1.23;;
9940;SDS011;5009;50.656;7.188;2023-02-26T15:30:54;2.37;;;1.47;;
9940;SDS011;5009;50.656;7.188;2023-02-26T15:33:22;2.53;;;1.23;;
9940;SDS011;5009;50.656;7.188;2023-02-26T15:35:49;1.30;;;1.20;;
9940;SDS011;5009;50.656;7.188;2023-02-26T15:38:16;2.13;;;1.20;;
9940;SDS011;5009;50.656;7.188;2023-02-26T15:40:42;1.40;;;1.30;;
9940;SDS011;5009;50.656;7.188;2023-02-26T15:43:09;4.37;;;2.20;;
9940;SDS011;5009;50.656;7.188;2023-02-26T15:45:40;1.30;;;1.07;;
9940;SDS011;5009;50.656;7.188;2023-02-26T15:48:17;1.90;;;1.10;;
9940;SDS011;5009;50.656;7.188;2023-02-26T15:50:47;2.37;;;1.90;;
9940;SDS011;5009;50.656;7.188;2023-02-26T15:53:17;2.00;;;1.83;;
9940;SDS011;5009;50.656;7.188;2023-02-26T15:55:51;1.60;;;1.50;;
9940;SDS011;5009;50.656;7.188;2023-02-26T15:58:20;4.87;;;1.50;;
9940;SDS011;5009;50.656;7.188;2023-02-26T16:00:52;2.43;;;1.43;;
9940;SDS011;5009;50.656;7.188;2023-02-26T16:03:26;1.33;;;1.20;;
9940;SDS011;5009;50.656;7.188;2023-02-26T16:05:54;1.17;;;1.07;;
9940;SDS011;5009;50.656;7.188;2023-02-26T16:08:21;2.53;;;1.10;;
9940;SDS011;5009;50.656;7.188;2023-02-26T16:10:47;1.93;;;1.40;;
9940;SDS011;5009;50.656;7.188;2023-02-26T16:13:14;2.00;;;1.40;;
9940;SDS011;5009;50.656;7.188;2023-02-26T16:15:46;1.73;;;1.43;;
9940;SDS011;5009;50.656;7.188;2023-02-26T16:18:13;1.77;;;1.43;;
9940;SDS011;5009;50.656;7.188;2023-02-26T16:20:43;2.90;;;1.43;;
9940;SDS011;5009;50.656;7.188;2023-02-26T16:23:12;1.97;;;1.43;;
9940;SDS011;5009;50.656;7.188;2023-02-26T16:25:48;3.80;;;1.60;;
9940;SDS011;5009;50.656;7.188;2023-02-26T16:28:26;2.17;;;1.70;;
9940;SDS011;5009;50.656;7.188;2023-02-26T16:30:56;1.60;;;1.50;;
9940;SDS011;5009;50.656;7.188;2023-02-26T16:33:23;2.63;;;1.53;;
9940;SDS011;5009;50.656;7.188;2023-02-26T16:35:54;2.37;;;1.90;;
9940;SDS011;5009;50.656;7.188;2023-02-26T16:38:30;2.40;;;1.70;;
9940;SDS011;5009;50.656;7.188;2023-02-26T16:41:20;3.33;;;1.50;;
9940;SDS011;5009;50.656;7.188;2023-02-26T16:43:55;1.87;;;1.60;;
9940;SDS011;5009;50.656;7.188;2023-02-26T16:49:10;2.00;;;1.40;;
9940;SDS011;5009;50.656;7.188;2023-02-26T16:51:47;2.43;;;1.37;;
9940;SDS011;5009;50.656;7.188;2023-02-26T16:54:36;1.97;;;1.67;;
9940;SDS011;5009;50.656;7.188;2023-02-26T16:57:02;2.47;;;2.27;;
9940;SDS011;5009;50.656;7.188;2023-02-26T16:59:45;4.97;;;2.40;;
9940;SDS011;5009;50.656;7.188;2023-02-26T17:02:16;3.10;;;2.80;;
9940;SDS011;5009;50.656;7.188;2023-02-26T17:04:48;2.73;;;2.03;;
9940;SDS011;5009;50.656;7.188;2023-02-26T17:07:22;2.03;;;1.83;;
9940;SDS011;5009;50.656;7.188;2023-02-26T17:09:59;2.80;;;1.93;;
9940;SDS011;5009;50.656;7.188;2023-02-26T17:12:42;3.57;;;1.70;;
9940;SDS011;5009;50.656;7.188;2023-02-26T17:15:28;2.43;;;1.87;;
9940;SDS011;5009;50.656;7.188;2023-02-26T17:17:56;3.13;;;2.20;;
9940;SDS011;5009;50.656;7.188;2023-02-26T17:20:24;2.87;;;2.57;;
9940;SDS011;5009;50.656;7.188;2023-02-26T17:22:51;3.77;;;2.43;;
9940;SDS011;5009;50.656;7.188;2023-02-26T17:25:18;3.63;;;2.20;;
9940;SDS011;5009;50.656;7.188;2023-02-26T17:27:45;2.93;;;2.03;;
9940;SDS011;5009;50.656;7.188;2023-02-26T17:30:12;2.13;;;1.80;;
9940;SDS011;5009;50.656;7.188;2023-02-26T17:32:42;2.13;;;1.70;;
9940;SDS011;5009;50.656;7.188;2023-02-26T17:35:10;1.40;;;1.30;;
9940;SDS011;5009;50.656;7.188;2023-02-26T17:37:40;6.50;;;3.90;;
9940;SDS011;5009;50.656;7.188;2023-02-26T17:40:28;4.70;;;3.63;;
9940;SDS011;5009;50.656;7.188;2023-02-26T17:42:55;3.63;;;2.00;;
9940;SDS011;5009;50.656;7.188;2023-02-26T17:45:21;3.63;;;2.03;;
9940;SDS011;5009;50.656;7.188;2023-02-26T17:47:47;3.60;;;2.07;;
9940;SDS011;5009;50.656;7.188;2023-02-26T17:52:45;4.37;;;2.43;;
9940;SDS011;5009;50.656;7.188;2023-02-26T17:55:11;2.17;;;1.97;;
9940;SDS011;5009;50.656;7.188;2023-02-26T17:57:36;3.57;;;1.90;;
9940;SDS011;5009;50.656;7.188;2023-02-26T18:00:02;2.90;;;2.03;;
9940;SDS011;5009;50.656;7.188;2023-02-26T18:02:29;3.97;;;2.30;;
9940;SDS011;5009;50.656;7.188;2023-02-26T18:04:54;3.87;;;2.13;;
9940;SDS011;5009;50.656;7.188;2023-02-26T18:07:20;2.07;;;1.97;;
9940;SDS011;5009;50.656;7.188;2023-02-26T18:09:48;3.17;;;2.03;;
9940;SDS011;5009;50.656;7.188;2023-02-26T18:12:15;1.87;;;1.70;;
9940;SDS011;5009;50.656;7.188;2023-02-26T18:14:42;1.97;;;1.70;;
9940;SDS011;5009;50.656;7.188;2023-02-26T18:17:11;2.37;;;1.97;;
9940;SDS011;5009;50.656;7.188;2023-02-26T18:19:39;1.37;;;1.30;;
9940;SDS011;5009;50.656;7.188;2023-02-26T18:22:08;1.93;;;1.83;;
9940;SDS011;5009;50.656;7.188;2023-02-26T18:24:38;2.50;;;2.00;;
9940;SDS011;5009;50.656;7.188;2023-02-26T18:27:04;4.03;;;2.80;;
9940;SDS011;5009;50.656;7.188;2023-02-26T18:29:30;3.10;;;2.40;;
9940;SDS011;5009;50.656;7.188;2023-02-26T18:31:56;3.17;;;2.20;;
9940;SDS011;5009;50.656;7.188;2023-02-26T18:34:24;3.03;;;1.97;;
9940;SDS011;5009;50.656;7.188;2023-02-26T18:36:50;4.77;;;2.60;;
9940;SDS011;5009;50.656;7.188;2023-02-26T18:39:16;3.00;;;2.43;;
9940;SDS011;5009;50.656;7.188;2023-02-26T18:41:44;4.30;;;2.53;;
9940;SDS011;5009;50.656;7.188;2023-02-26T18:44:10;2.83;;;1.80;;
9940;SDS011;5009;50.656;7.188;2023-02-26T18:46:35;3.50;;;2.03;;
9940;SDS011;5009;50.656;7.188;2023-02-26T18:49:04;3.27;;;1.97;;
9940;SDS011;5009;50.656;7.188;2023-02-26T18:51:30;1.50;;;1.40;;
9940;SDS011;5009;50.656;7.188;2023-02-26T18:53:56;4.13;;;2.27;;
9940;SDS011;5009;50.656;7.188;2023-02-26T18:56:22;2.40;;;2.20;;
9940;SDS011;5009;50.656;7.188;2023-02-26T18:58:47;5.27;;;2.60;;
9940;SDS011;5009;50.656;7.188;2023-02-26T19:01:13;3.13;;;2.27;;
9940;SDS011;5009;50.656;7.188;2023-02-26T19:03:38;2.70;;;2.40;;
9940;SDS011;5009;50.656;7.188;2023-02-26T19:06:05;3.33;;;2.37;;
9940;SDS011;5009;50.656;7.188;2023-02-26T19:08:32;3.60;;;2.70;;
9940;SDS011;5009;50.656;7.188;2023-02-26T19:10:58;2.47;;;2.20;;
9940;SDS011;5009;50.656;7.188;2023-02-26T19:13:24;4.23;;;2.63;;
9940;SDS011;5009;50.656;7.188;2023-02-26T19:15:51;2.50;;;2.30;;
9940;SDS011;5009;50.656;7.188;2023-02-26T19:18:17;2.60;;;2.40;;
9940;SDS011;5009;50.656;7.188;2023-02-26T19:20:43;3.27;;;2.20;;
9940;SDS011;5009;50.656;7.188;2023-02-26T19:23:09;2.37;;;2.13;;
9940;SDS011;5009;50.656;7.188;2023-02-26T19:25:35;4.27;;;2.70;;
9940;SDS011;5009;50.656;7.188;2023-02-26T19:28:01;5.47;;;1.93;;
9940;SDS011;5009;50.656;7.188;2023-02-26T19:30:27;3.50;;;2.33;;
9940;SDS011;5009;50.656;7.188;2023-02-26T19:32:53;3.33;;;2.30;;
9940;SDS011;5009;50.656;7.188;2023-02-26T19:35:19;2.20;;;2.00;;
9940;SDS011;5009;50.656;7.188;2023-02-26T19:37:46;3.13;;;2.13;;
9940;SDS011;5009;50.656;7.188;2023-02-26T19:40:12;3.60;;;2.27;;
9940;SDS011;5009;50.656;7.188;2023-02-26T19:42:43;2.70;;;2.23;;
9940;SDS011;5009;50.656;7.188;2023-02-26T19:45:09;3.47;;;2.43;;
9940;SDS011;5009;50.656;7.188;2023-02-26T19:47:36;4.17;;;2.20;;
9940;SDS011;5009;50.656;7.188;2023-02-26T19:50:01;4.20;;;2.70;;
9940;SDS011;5009;50.656;7.188;2023-02-26T19:52:28;2.60;;;2.40;;
9940;SDS011;5009;50.656;7.188;2023-02-26T19:54:56;3.37;;;2.73;;
9940;SDS011;5009;50.656;7.188;2023-02-26T19:57:21;2.73;;;2.53;;
9940;SDS011;5009;50.656;7.188;2023-02-26T19:59:47;2.47;;;2.27;;
9940;SDS011;5009;50.656;7.188;2023-02-26T20:02:13;4.07;;;2.40;;
9940;SDS011;5009;50.656;7.188;2023-02-26T20:04:39;3.77;;;2.63;;
9940;SDS011;5009;50.656;7.188;2023-02-26T20:07:05;3.40;;;3.10;;
9940;SDS011;5009;50.656;7.188;2023-02-26T20:09:31;4.13;;;3.23;;
9940;SDS011;5009;50.656;7.188;2023-02-26T20:11:57;3.73;;;2.77;;
9940;SDS011;5009;50.656;7.188;2023-02-26T20:14:23;3.07;;;2.77;;
9940;SDS011;5009;50.656;7.188;2023-02-26T20:16:48;4.13;;;2.70;;
9940;SDS011;5009;50.656;7.188;2023-02-26T20:19:14;3.20;;;2.77;;
9940;SDS011;5009;50.656;7.188;2023-02-26T20:21:40;3.10;;;2.57;;
9940;SDS011;5009;50.656;7.188;2023-02-26T20:24:05;3.00;;;2.53;;
9940;SDS011;5009;50.656;7.188;2023-02-26T20:26:31;4.73;;;3.63;;
9940;SDS011;5009;50.656;7.188;2023-02-26T20:28:57;6.40;;;4.33;;
9940;SDS011;5009;50.656;7.188;2023-02-26T20:31:23;5.77;;;3.50;;
9940;SDS011;5009;50.656;7.188;2023-02-26T20:33:49;8.73;;;3.90;;
9940;SDS011;5009;50.656;7.188;2023-02-26T20:36:14;3.83;;;3.43;;
9940;SDS011;5009;50.656;7.188;2023-02-26T20:38:40;3.90;;;3.47;;
9940;SDS011;5009;50.656;7.188;2023-02-26T20:41:06;5.60;;;4.00;;
9940;SDS011;5009;50.656;7.188;2023-02-26T20:43:32;5.53;;;4.37;;
9940;SDS011;5009;50.656;7.188;2023-02-26T20:45:58;5.63;;;3.47;;
9940;SDS011;5009;50.656;7.188;2023-02-26T20:48:24;5.10;;;3.70;;
9940;SDS011;5009;50.656;7.188;2023-02-26T20:50:50;7.23;;;3.53;;
9940;SDS011;5009;50.656;7.188;2023-02-26T20:53:18;4.47;;;3.40;;
9940;SDS011;5009;50.656;7.188;2023-02-26T20:55:45;3.63;;;2.73;;
9940;SDS011;5009;50.656;7.188;2023-02-26T20:58:10;4.37;;;2.70;;
9940;SDS011;5009;50.656;7.188;2023-02-26T21:00:36;4.50;;;2.70;;
9940;SDS011;5009;50.656;7.188;2023-02-26T21:03:01;5.83;;;2.53;;
9940;SDS011;5009;50.656;7.188;2023-02-26T21:05:27;6.50;;;3.63;;
9940;SDS011;5009;50.656;7.188;2023-02-26T21:07:53;4.07;;;3.67;;
9940;SDS011;5009;50.656;7.188;2023-02-26T21:10:18;4.77;;;4.00;;
9940;SDS011;5009;50.656;7.188;2023-02-26T21:12:44;6.10;;;4.17;;
9940;SDS011;5009;50.656;7.188;2023-02-26T21:15:11;6.67;;;4.70;;
9940;SDS011;5009;50.656;7.188;2023-02-26T21:17:38;7.33;;;4.93;;
9940;SDS011;5009;50.656;7.188;2023-02-26T21:20:05;7.37;;;5.50;;
9940;SDS011;5009;50.656;7.188;2023-02-26T21:22:32;6.27;;;5.00;;
9940;SDS011;5009;50.656;7.188;2023-02-26T21:24:59;8.17;;;5.77;;
9940;SDS011;5009;50.656;7.188;2023-02-26T21:27:25;7.53;;;5.47;;
9940;SDS011;5009;50.656;7.188;2023-02-26T21:29:50;8.93;;;6.00;;
9940;SDS011;5009;50.656;7.188;2023-02-26T21:32:16;8.10;;;5.60;;
9940;SDS011;5009;50.656;7.188;2023-02-26T21:34:41;7.43;;;5.63;;
9940;SDS011;5009;50.656;7.188;2023-02-26T21:37:09;7.13;;;5.83;;
9940;SDS011;5009;50.656;7.188;2023-02-26T21:39:35;8.13;;;6.03;;
9940;SDS011;5009;50.656;7.188;2023-02-26T21:42:02;7.87;;;5.90;;
9940;SDS011;5009;50.656;7.188;2023-02-26T21:44:29;7.33;;;5.90;;
9940;SDS011;5009;50.656;7.188;2023-02-26T21:46:56;6.93;;;6.00;;
9940;SDS011;5009;50.656;7.188;2023-02-26T21:49:22;6.33;;;5.77;;
9940;SDS011;5009;50.656;7.188;2023-02-26T21:51:48;7.10;;;6.20;;
9940;SDS011;5009;50.656;7.188;2023-02-26T21:54:14;9.10;;;6.13;;
9940;SDS011;5009;50.656;7.188;2023-02-26T21:56:39;8.00;;;6.23;;
9940;SDS011;5009;50.656;7.188;2023-02-26T21:59:05;7.23;;;6.17;;
